Page Banner

United States Department of Agriculture

Agricultural Research Service

Swan Lake Research Farm, Stevens County, MN

(Terms are described on the Weather Page)

                      Soil Temperatures
 

Air Temp.
( oF)

Relative Humidity(%)

Solar Radiation
(kJ/m2)

Wind Speed
(mph)

Growing
Degree
Days

Precip.
(Inches)

2 Inches
( oF)

4 Inches
( oF)

Date Max

Min

Max Min Total Mean 50/86 50 40 Total Max Min Max Min
09/27/2016 65.4 39.4 89 29 15356. 9.16 2504 2437 3913 0.00 62.4 46.7 59.4 51.0
09/26/2016 67.0 46.0 71 20 18124. 12.34 2496 2435 3901 0.00 62.8 49.0 60.5 53.1
09/25/2016 67.4 50.3 98 46 5875. 9.25 2488 2428 3884 0.00 66.0 54.4 65.5 57.7
09/24/2016 78.1 62.6 99 67 9062. 10.95 2479 2419 3865 0.25 70.8 61.4 67.1 61.2
09/23/2016 63.0 55.3 97 60 3198. 12.96 2459 2399 3835 0.26 61.6 57.0 61.3 58.8
09/22/2016 63.6 56.7 93 53 3399. 9.96 2450 2390 3816 0.03 63.0 59.4 63.8 61.0
09/21/2016 70.3 58.4 84 50 7470. 12.89 2440 2380 3796 0.00 67.9 59.6 65.8 61.5
09/20/2016 75.9 48.7 94 36 10890. 5.93 2426 2366 3772 0.00 71.6 57.5 67.9 60.3
09/19/2016 78.3 52.6 95 25 18357. 4.88 2413 2354 3750 0.00 76.6 59.1 70.9 60.7
09/18/2016 79.8 54.4 91 41 11907. 6.35 2398 2339 3725 0.00 70.1 56.2 67.0 58.9
09/17/2016 73.0 55.2 99 29 19066. 6.10 2381 2322 3698 0.00 70.6 59.4 67.4 60.8
09/16/2016 74.5 55.0 99 52 12599. 4.87 2367 2308 3674 0.35 72.6 59.6 67.8 60.4
09/15/2016 65.1 55.7 99 68 3131. 6.34 2352 2293 3649 0.18 63.8 59.8 63.2 60.9
09/14/2016 66.5 35.8 99 37 19722. 4.32 2342 2283 3629 0.00 72.6 48.4 66.9 53.4
09/13/2016 57.0 41.5 98 55 10777. 5.68 2334 2282 3618 0.00 64.9 54.3 63.6 58.3
09/12/2016 67.9 52.6 91 60 5839. 6.55 2330 2282 3609 0.00 68.3 60.4 69.1 63.5
09/11/2016 80.5 56.2 84 38 20074. 8.64 2320 2272 3589 0.00 79.1 59.0 73.1 61.6
09/10/2016 72.6 47.6 98 37 18053. 5.55 2302 2254 3561 0.00 75.7 55.7 70.3 59.4
09/09/2016 68.4 53.6 98 54 7587. 4.91 2291 2244 3541 0.00 69.0 60.3 68.5 63.6
09/08/2016 77.2 52.1 99 30 18810. 4.02 2280 2233 3520 0.00 78.4 59.4 72.9 62.8
09/07/2016 75.3 59.1 95 71 6629. 6.88 2265 2218 3495 0.06 72.0 63.4 69.6 65.5
09/06/2016 74.2 60.0 99 61 9328. 4.91 2248 2201 3468 0.03 75.6 66.4 72.9 68.8
09/05/2016 76.9 64.8 98 65 11431. 5.94 2231 2184 3441 0.53 78.9 68.6 74.8 70.0
09/04/2016 78.5 63.9 84 62 16606. 12.44 2210 2163 3410 0.00 81.9 67.4 77.1 68.8
09/03/2016 76.5 59.9 85 54 18764. 13.20 2189 2142 3379 0.00 80.3 64.2 75.6 66.4
09/02/2016 75.3 55.3 92 48 19271. 10.19 2171 2124 3351 0.00 79.3 62.9 75.1 66.5
09/01/2016 76.7 56.8 91 47 20984. 5.81 2156 2109 3326 0.00 85.3 64.2 79.1 67.6

 


Last Modified: 9/28/2016
Footer Content Back to Top of Page